Time;durP1;ratioP1;P1;durP2;ratioP2;P2;SDS_P1;SDS_P2;PMS_P1;PMS_P2;Temp;Humidity;BMP_temperature;BMP_pressure;BME280_temperature;BME280_humidity;BME280_pressure;Samples;Min_cycle;Max_cycle;Signal;HPM_P1;HPM_P2
2021/07/05 00:00:58;;;;;;;1.10;0.95;;;22.80;76.20;;;;;;5014501;28;20029;-83
2021/07/05 00:03:24;;;;;;;0.90;0.90;;;22.40;77.30;;;;;;5014517;28;20421;-81
2021/07/05 00:05:52;;;;;;;2.85;1.75;;;22.10;78.10;;;;;;5014546;28;20049;-84
2021/07/05 00:08:18;;;;;;;0.80;0.80;;;22.60;78.40;;;;;;5012736;28;20053;-81
2021/07/05 00:10:44;;;;;;;1.42;1.33;;;23.00;77.80;;;;;;5014674;28;20074;-81
2021/07/05 00:13:10;;;;;;;0.95;0.95;;;23.10;77.20;;;;;;5014097;28;20041;-83
2021/07/05 00:15:35;;;;;;;1.08;1.08;;;23.10;76.90;;;;;;5014485;28;20496;-81
2021/07/05 00:18:06;;;;;;;2.63;1.63;;;23.10;77.10;;;;;;5013798;28;20073;-81
2021/07/05 00:20:36;;;;;;;1.48;1.38;;;23.10;78.00;;;;;;5014393;28;20037;-79
2021/07/05 00:23:03;;;;;;;1.67;1.58;;;23.10;78.60;;;;;;5014090;28;20032;-82
2021/07/05 00:25:29;;;;;;;1.70;1.60;;;23.00;78.50;;;;;;5014204;28;20091;-81
2021/07/05 00:27:55;;;;;;;0.85;0.85;;;23.10;78.30;;;;;;5013526;28;20041;-82
2021/07/05 00:30:21;;;;;;;0.90;0.90;;;23.10;78.60;;;;;;5014305;28;20022;-81
2021/07/05 00:32:48;;;;;;;1.35;1.25;;;23.10;78.10;;;;;;5014995;28;20030;-82
2021/07/05 00:35:18;;;;;;;1.00;1.00;;;23.10;77.90;;;;;;5034176;28;20064;-82
2021/07/05 00:37:45;;;;;;;0.80;0.80;;;23.10;78.10;;;;;;5033757;28;20489;-84
2021/07/05 00:40:11;;;;;;;1.13;1.10;;;23.00;78.00;;;;;;5033604;28;20032;-82
2021/07/05 00:42:38;;;;;;;1.30;1.20;;;23.10;78.10;;;;;;5034033;28;20136;-83
2021/07/05 00:45:06;;;;;;;1.45;1.35;;;23.00;78.30;;;;;;5033427;28;20470;-83
2021/07/05 00:47:32;;;;;;;1.00;1.00;;;22.90;78.30;;;;;;5033296;28;20044;-82
2021/07/05 00:49:58;;;;;;;0.88;0.88;;;22.90;78.30;;;;;;5033565;28;20025;-82
2021/07/05 00:52:24;;;;;;;1.73;1.63;;;22.80;77.70;;;;;;5033353;28;20124;-82
2021/07/05 00:54:50;;;;;;;0.90;0.90;;;22.80;78.60;;;;;;5033063;28;20021;-82
2021/07/05 00:57:24;;;;;;;0.70;0.70;;;22.80;78.30;;;;;;5033273;28;20519;-84
2021/07/05 00:59:54;;;;;;;1.02;1.00;;;22.80;78.90;;;;;;5033522;28;20102;-83
2021/07/05 01:02:22;;;;;;;1.00;1.00;;;22.40;78.70;;;;;;5033107;28;20026;-83
2021/07/05 01:04:48;;;;;;;0.93;0.93;;;22.50;79.60;;;;;;5032901;28;20091;-83
2021/07/05 01:07:14;;;;;;;0.90;0.90;;;22.50;79.10;;;;;;5033510;28;20048;-82
2021/07/05 01:09:41;;;;;;;1.13;1.08;;;22.60;78.60;;;;;;5033090;28;20112;-83
2021/07/05 01:12:08;;;;;;;1.00;1.00;;;22.60;79.50;;;;;;5033023;28;20049;-83
2021/07/05 01:14:34;;;;;;;0.80;0.80;;;22.50;81.10;;;;;;5032832;28;20021;-84
2021/07/05 01:17:01;;;;;;;1.00;1.00;;;22.40;82.00;;;;;;5032657;28;20442;-84
2021/07/05 01:19:26;;;;;;;1.70;1.33;;;22.40;82.30;;;;;;5033103;28;20087;-81
2021/07/05 01:21:54;;;;;;;0.90;0.90;;;22.40;82.30;;;;;;5032914;28;20104;-83
2021/07/05 01:24:20;;;;;;;2.22;2.03;;;22.40;81.50;;;;;;5032460;28;20358;-81
2021/07/05 01:26:46;;;;;;;0.90;0.90;;;22.40;81.40;;;;;;5032532;28;20488;-84
2021/07/05 01:29:11;;;;;;;0.95;0.95;;;22.20;81.90;;;;;;5032905;28;20032;-82
2021/07/05 01:31:37;;;;;;;1.25;1.15;;;22.20;82.10;;;;;;5031332;28;20033;-84
2021/07/05 01:34:03;;;;;;;1.70;1.60;;;22.30;82.30;;;;;;5022229;28;20470;-83
2021/07/05 01:36:30;;;;;;;1.00;1.00;;;22.30;82.80;;;;;;5012663;28;20022;-83
2021/07/05 01:38:56;;;;;;;1.20;1.10;;;22.30;82.80;;;;;;5012321;28;20030;-82
2021/07/05 01:41:22;;;;;;;0.80;0.80;;;22.40;83.20;;;;;;5012708;28;20386;-83
2021/07/05 01:43:49;;;;;;;1.00;1.00;;;22.40;83.50;;;;;;5012593;28;20385;-83
2021/07/05 01:46:15;;;;;;;0.90;0.90;;;22.40;83.40;;;;;;5012586;28;20034;-81
2021/07/05 01:48:42;;;;;;;0.90;0.90;;;22.10;82.70;;;;;;5012088;28;20080;-80
2021/07/05 01:51:08;;;;;;;0.80;0.80;;;21.90;84.10;;;;;;5011356;28;20049;-83
2021/07/05 01:53:34;;;;;;;1.67;1.20;;;21.90;83.70;;;;;;5012429;28;20041;-84
2021/07/05 01:56:00;;;;;;;1.02;1.02;;;22.00;83.20;;;;;;5012206;28;20026;-82
2021/07/05 01:58:28;;;;;;;0.88;0.88;;;21.90;83.80;;;;;;5012015;28;20041;-84
2021/07/05 02:00:56;;;;;;;1.20;1.10;;;22.00;84.50;;;;;;5012394;28;20057;-83
2021/07/05 02:03:21;;;;;;;1.00;1.00;;;22.20;84.00;;;;;;5012257;28;20030;-83
2021/07/05 02:05:48;;;;;;;1.08;1.08;;;22.20;83.50;;;;;;5012210;28;20115;-82
2021/07/05 02:08:15;;;;;;;1.52;1.42;;;22.00;83.40;;;;;;5012162;28;20413;-82
2021/07/05 02:10:42;;;;;;;1.60;1.50;;;22.10;84.50;;;;;;5010715;28;20034;-82
2021/07/05 02:13:24;;;;;;;1.00;1.00;;;22.10;83.80;;;;;;5012242;28;20076;-83
2021/07/05 02:15:53;;;;;;;1.52;1.42;;;22.20;83.30;;;;;;5011668;28;20032;-82
2021/07/05 02:18:19;;;;;;;0.90;0.90;;;22.10;83.60;;;;;;5012191;28;20406;-85
2021/07/05 02:20:45;;;;;;;1.00;1.00;;;22.10;84.20;;;;;;5012747;28;20037;-85
2021/07/05 02:23:14;;;;;;;1.15;1.13;;;22.20;83.60;;;;;;5011893;28;20018;-82
2021/07/05 02:25:41;;;;;;;1.73;1.63;;;22.10;83.30;;;;;;5010512;28;20022;-81
2021/07/05 02:28:13;;;;;;;0.90;0.90;;;22.10;83.30;;;;;;5011845;28;20060;-83
2021/07/05 02:30:41;;;;;;;0.90;0.90;;;22.20;83.40;;;;;;5011734;28;20046;-84
2021/07/05 02:33:07;;;;;;;0.82;0.82;;;22.20;83.80;;;;;;5012912;28;20026;-81
2021/07/05 02:35:38;;;;;;;0.98;0.98;;;22.20;84.00;;;;;;5031762;28;20071;-84
2021/07/05 02:38:09;;;;;;;1.10;1.10;;;22.10;84.20;;;;;;5031526;28;20071;-83
2021/07/05 02:40:38;;;;;;;1.23;1.13;;;22.10;84.40;;;;;;5031386;28;20414;-82
2021/07/05 02:43:04;;;;;;;0.80;0.80;;;22.00;84.40;;;;;;5029941;28;20072;-81
2021/07/05 02:45:31;;;;;;;1.95;1.35;;;22.00;85.10;;;;;;5031737;28;20044;-79
2021/07/05 02:48:08;;;;;;;1.08;1.08;;;22.10;86.60;;;;;;5031098;28;20032;-80
2021/07/05 02:50:35;;;;;;;1.15;1.10;;;21.20;87.40;;;;;;5031066;28;20069;-79
2021/07/05 02:53:03;;;;;;;0.95;0.95;;;21.20;88.50;;;;;;5030960;28;20045;-80
2021/07/05 02:55:29;;;;;;;2.75;1.95;;;21.60;87.60;;;;;;5031259;28;20378;-81
2021/07/05 02:57:56;;;;;;;3.42;1.45;;;20.90;88.80;;;;;;5031130;28;20041;-80
2021/07/05 03:00:35;;;;;;;0.90;0.90;;;20.90;88.70;;;;;;5031320;28;20018;-81
2021/07/05 03:03:01;;;;;;;1.30;1.20;;;21.20;89.20;;;;;;5031069;28;20057;-80
2021/07/05 03:05:29;;;;;;;1.05;1.02;;;21.60;88.90;;;;;;5030780;28;20084;-80
2021/07/05 03:07:56;;;;;;;0.98;0.98;;;21.80;89.60;;;;;;5031264;28;20434;-80
2021/07/05 03:10:30;;;;;;;1.30;1.20;;;21.90;88.60;;;;;;5030986;28;20072;-78
2021/07/05 03:12:57;;;;;;;1.00;1.00;;;22.00;89.80;;;;;;5031066;28;20087;-81
2021/07/05 03:15:23;;;;;;;1.48;1.38;;;22.00;91.30;;;;;;5030781;28;20033;-80
2021/07/05 03:17:49;;;;;;;1.00;1.00;;;21.90;90.70;;;;;;5030878;28;20060;-81
2021/07/05 03:20:18;;;;;;;1.00;1.00;;;21.80;90.50;;;;;;5031212;28;20432;-80
2021/07/05 03:22:46;;;;;;;1.02;1.02;;;21.80;90.10;;;;;;5030992;28;20026;-80
2021/07/05 03:25:15;;;;;;;1.80;1.70;;;21.90;90.70;;;;;;5030652;28;20432;-82
2021/07/05 03:27:41;;;;;;;1.38;1.27;;;21.80;91.20;;;;;;5030805;28;20033;-80
2021/07/05 03:30:09;;;;;;;0.90;0.90;;;21.70;91.40;;;;;;5030779;28;20025;-81
2021/07/05 03:32:35;;;;;;;1.45;1.35;;;21.90;92.10;;;;;;5030748;28;20029;-81
2021/07/05 03:35:06;;;;;;;1.00;1.00;;;21.90;93.10;;;;;;5031028;28;20100;-82
2021/07/05 03:37:32;;;;;;;1.02;1.02;;;21.50;93.10;;;;;;5030734;28;20249;-84
2021/07/05 03:39:57;;;;;;;1.48;1.38;;;21.30;93.10;;;;;;5030304;28;20025;-79
2021/07/05 03:42:23;;;;;;;0.90;0.90;;;21.00;94.10;;;;;;5031045;28;20025;-81
2021/07/05 03:44:49;;;;;;;1.52;1.42;;;21.10;94.80;;;;;;5030730;28;20022;-80
2021/07/05 03:47:15;;;;;;;1.52;1.42;;;21.10;95.40;;;;;;5030910;28;20446;-79
2021/07/05 03:49:41;;;;;;;1.17;1.10;;;21.10;95.50;;;;;;5031024;28;20033;-81
2021/07/05 03:52:07;;;;;;;1.00;1.00;;;21.00;96.70;;;;;;5030763;28;20025;-79
2021/07/05 03:54:32;;;;;;;1.00;1.00;;;21.40;96.70;;;;;;5032262;28;20351;-81
2021/07/05 03:56:58;;;;;;;1.20;1.13;;;21.50;98.70;;;;;;5034297;28;20486;-80
2021/07/05 03:59:25;;;;;;;1.55;1.45;;;21.60;99.70;;;;;;5034445;28;20128;-79
2021/07/05 04:01:51;;;;;;;1.00;1.00;;;21.40;99.90;;;;;;5034427;28;20104;-82
2021/07/05 04:04:17;;;;;;;0.90;0.90;;;21.30;99.90;;;;;;5033671;28;20029;-82
2021/07/05 04:06:43;;;;;;;1.00;1.00;;;21.50;99.90;;;;;;5034366;28;20039;-83
2021/07/05 04:09:09;;;;;;;1.20;1.10;;;21.60;99.90;;;;;;5034136;28;20466;-83
2021/07/05 04:11:35;;;;;;;1.17;1.10;;;21.70;99.90;;;;;;5033739;28;20029;-82
2021/07/05 04:14:01;;;;;;;1.00;1.00;;;21.50;99.90;;;;;;5033789;28;20018;-83
2021/07/05 04:16:27;;;;;;;2.17;2.05;;;21.40;99.90;;;;;;5033945;28;20036;-80
2021/07/05 04:18:53;;;;;;;3.70;1.98;;;21.50;99.90;;;;;;5033715;28;20037;-83
2021/07/05 04:21:21;;;;;;;1.38;1.27;;;21.50;99.90;;;;;;5034175;28;20025;-83
2021/07/05 04:23:47;;;;;;;1.33;1.23;;;21.40;99.90;;;;;;5033661;28;20496;-80
2021/07/05 04:26:14;;;;;;;1.30;1.20;;;21.30;99.90;;;;;;5033845;28;20071;-81
2021/07/05 04:28:40;;;;;;;0.90;0.90;;;21.30;99.90;;;;;;5033933;28;20086;-79
2021/07/05 04:31:05;;;;;;;1.23;1.13;;;21.40;99.90;;;;;;5033392;28;20104;-82
2021/07/05 04:33:31;;;;;;;1.75;1.65;;;21.40;99.90;;;;;;5032186;28;20473;-82
2021/07/05 04:35:57;;;;;;;1.73;1.63;;;21.40;99.90;;;;;;5014362;28;20034;-82
2021/07/05 04:38:23;;;;;;;3.53;2.55;;;21.50;99.90;;;;;;5013625;28;20088;-81
2021/07/05 04:41:01;;;;;;;1.88;1.45;;;21.30;99.90;;;;;;5013704;28;20040;-84
2021/07/05 04:43:27;;;;;;;1.27;1.17;;;20.80;99.90;;;;;;5014225;28;20109;-86
2021/07/05 04:45:54;;;;;;;1.23;1.13;;;21.20;99.90;;;;;;5014221;28;20093;-85
2021/07/05 04:48:21;;;;;;;0.90;0.90;;;21.10;99.90;;;;;;5013689;28;20420;-82
2021/07/05 04:50:48;;;;;;;1.50;1.40;;;21.20;99.90;;;;;;5013806;28;20034;-84
2021/07/05 04:53:13;;;;;;;3.05;2.80;;;21.30;99.90;;;;;;5013410;28;20460;-84
2021/07/05 04:55:40;;;;;;;4.20;3.80;;;21.20;99.90;;;;;;5013690;28;20521;-87
2021/07/05 04:58:06;;;;;;;1.83;1.60;;;21.40;99.90;;;;;;5022318;28;20088;-87
2021/07/05 05:00:34;;;;;;;1.05;1.02;;;21.40;99.90;;;;;;5023234;28;20017;-84
2021/07/05 05:03:02;;;;;;;1.95;1.65;;;21.50;99.90;;;;;;5023496;28;20025;-85
2021/07/05 05:05:29;;;;;;;1.35;1.25;;;21.50;99.90;;;;;;5021662;28;20042;-84
2021/07/05 05:07:56;;;;;;;1.33;1.23;;;20.90;99.90;;;;;;5022228;28;20025;-85
2021/07/05 05:10:22;;;;;;;1.05;1.05;;;20.80;99.90;;;;;;5023282;28;20024;-84
2021/07/05 05:12:49;;;;;;;1.20;1.10;;;21.00;99.90;;;;;;5030628;28;20677;-84
2021/07/05 05:15:17;;;;;;;1.00;1.00;;;21.00;99.90;;;;;;5032791;28;20029;-86
2021/07/05 05:17:44;;;;;;;2.78;1.80;;;21.00;99.90;;;;;;5032764;28;20033;-86
2021/07/05 05:20:11;;;;;;;1.45;1.35;;;21.00;99.90;;;;;;5033365;28;20060;-80
2021/07/05 05:22:38;;;;;;;3.38;3.08;;;21.00;99.90;;;;;;5032859;28;20080;-84
2021/07/05 05:25:06;;;;;;;3.35;3.05;;;21.10;99.90;;;;;;5032461;28;20061;-83
2021/07/05 05:27:32;;;;;;;2.83;2.63;;;21.10;99.90;;;;;;5032661;28;20473;-82
2021/07/05 05:29:58;;;;;;;2.28;1.80;;;21.10;99.90;;;;;;5030904;28;20584;-81
2021/07/05 05:32:24;;;;;;;1.00;1.00;;;21.10;99.90;;;;;;5031686;28;20105;-82
2021/07/05 05:34:50;;;;;;;1.00;1.00;;;21.00;99.90;;;;;;5020627;28;20104;-84
2021/07/05 06:01:21;;;;;;;7.90;4.50;;;21.80;99.90;;;;;;5601932;22;20059;-84
2021/07/05 06:03:47;;;;;;;3.33;2.65;;;22.00;99.90;;;;;;5052290;28;20021;-85
2021/07/05 06:06:13;;;;;;;1.77;1.63;;;21.90;99.90;;;;;;5052171;28;20020;-84
2021/07/05 06:08:41;;;;;;;1.45;1.35;;;21.90;99.90;;;;;;5050461;28;20040;-86
2021/07/05 06:11:22;;;;;;;1.30;1.20;;;21.90;99.90;;;;;;5051478;28;20017;-88
2021/07/05 06:14:44;;;;;;;1.70;1.60;;;22.00;99.90;;;;;;5051015;28;20529;-85
2021/07/05 06:19:45;;;;;;;1.00;1.00;;;21.90;99.90;;;;;;5079368;23;20488;-87
2021/07/05 06:22:16;;;;;;;1.73;1.63;;;21.80;99.90;;;;;;5053744;28;20032;-86
2021/07/05 06:24:46;;;;;;;1.38;1.27;;;21.50;99.90;;;;;;5053444;28;20064;-83
2021/07/05 06:27:14;;;;;;;2.30;1.88;;;21.60;99.90;;;;;;5071195;28;20380;-84
2021/07/05 06:29:40;;;;;;;1.80;1.70;;;21.70;99.90;;;;;;5071389;28;20035;-87
2021/07/05 06:32:06;;;;;;;1.42;1.33;;;21.90;99.90;;;;;;5053330;28;20123;-87
2021/07/05 06:34:32;;;;;;;1.65;1.55;;;22.00;99.90;;;;;;5052761;28;20471;-84
2021/07/05 06:36:58;;;;;;;1.55;1.45;;;22.00;99.90;;;;;;5071578;28;20039;-87
2021/07/05 06:39:23;;;;;;;1.55;1.45;;;22.10;99.90;;;;;;5071207;28;20093;-85
2021/07/05 06:41:49;;;;;;;1.85;1.65;;;22.10;99.90;;;;;;5053602;28;20029;-86
2021/07/05 06:44:24;;;;;;;1.90;1.80;;;22.20;99.90;;;;;;5053344;28;20052;-87
2021/07/05 06:46:50;;;;;;;1.50;1.40;;;22.20;99.90;;;;;;5053235;28;20035;-87
2021/07/05 06:49:19;;;;;;;0.82;0.82;;;22.20;99.90;;;;;;5052759;28;20024;-85
2021/07/05 06:51:45;;;;;;;0.88;0.88;;;22.20;99.90;;;;;;5071127;28;20017;-87
2021/07/05 06:54:11;;;;;;;0.98;0.98;;;22.00;99.90;;;;;;5070244;28;20606;-88
2021/07/05 07:06:57;;;;;;;1.17;1.13;;;22.10;99.90;;;;;;5049283;28;20115;-82
2021/07/05 07:13:45;;;;;;;2.75;2.15;;;22.00;99.90;;;;;;5011401;28;20121;-88
2021/07/05 07:16:51;;;;;;;1.10;1.10;;;21.70;99.90;;;;;;4993842;28;20018;-86
2021/07/05 07:20:03;;;;;;;1.40;1.30;;;21.60;99.90;;;;;;4949404;29;20112;-85
2021/07/05 07:29:35;;;;;;;1.15;1.10;;;21.60;99.90;;;;;;4913625;29;20123;-85
2021/07/05 07:35:37;;;;;;;1.20;1.10;;;21.50;99.90;;;;;;4916230;29;20051;-87
2021/07/05 07:41:46;;;;;;;1.58;1.48;;;21.90;99.90;;;;;;4878357;29;19911;-87
2021/07/05 07:44:17;;;;;;;1.40;1.30;;;22.00;99.90;;;;;;4878073;29;20128;-86
2021/07/05 07:46:55;;;;;;;1.65;1.55;;;21.90;99.90;;;;;;4863190;29;20095;-87
2021/07/05 07:49:36;;;;;;;1.45;1.33;;;21.90;99.90;;;;;;4863502;29;20045;-87
2021/07/05 07:52:08;;;;;;;1.48;1.38;;;21.90;99.90;;;;;;4895100;29;20091;-86
2021/07/05 07:54:34;;;;;;;0.90;0.90;;;22.00;99.90;;;;;;4982473;28;20034;-84
2021/07/05 07:57:01;;;;;;;2.47;1.65;;;22.00;99.90;;;;;;4995319;28;20507;-85
2021/07/05 07:59:27;;;;;;;1.27;1.17;;;22.00;99.90;;;;;;4995097;28;20057;-84
2021/07/05 08:01:52;;;;;;;1.25;1.15;;;22.10;99.90;;;;;;4995154;28;20061;-84
2021/07/05 08:08:22;;;;;;;1.65;1.55;;;22.10;99.90;;;;;;4994797;28;20076;-87
2021/07/05 08:14:30;;;;;;;1.90;1.80;;;22.40;99.90;;;;;;4933651;29;20051;-86
2021/07/05 08:24:32;;;;;;;0.70;0.70;;;22.70;99.90;;;;;;4934753;29;20092;-86
2021/07/05 08:39:13;;;;;;;1.75;1.35;;;23.30;99.90;;;;;;4993196;28;20062;-84
2021/07/05 08:41:39;;;;;;;0.88;0.88;;;23.20;99.90;;;;;;4992127;28;20039;-87
2021/07/05 08:44:07;;;;;;;1.38;1.30;;;22.90;99.90;;;;;;4975860;28;20045;-87
2021/07/05 08:46:34;;;;;;;0.98;0.90;;;23.10;99.90;;;;;;4993525;28;20030;-86
2021/07/05 08:49:00;;;;;;;1.35;1.25;;;23.30;99.90;;;;;;4975388;28;20038;-86
2021/07/05 08:51:27;;;;;;;0.90;0.90;;;23.40;99.90;;;;;;4993366;28;20037;-86
2021/07/05 08:53:54;;;;;;;1.73;1.60;;;23.50;99.90;;;;;;4993287;28;20418;-83
2021/07/05 08:56:21;;;;;;;1.08;1.08;;;23.50;99.90;;;;;;4993623;28;20372;-87
2021/07/05 08:58:48;;;;;;;0.60;0.60;;;23.30;99.90;;;;;;4993332;28;20046;-88
2021/07/05 09:01:15;;;;;;;1.60;1.45;;;23.20;99.60;;;;;;4993436;28;20026;-83
2021/07/05 09:06:34;;;;;;;0.70;0.70;;;23.40;98.10;;;;;;4993226;28;20050;-88
2021/07/05 09:08:59;;;;;;;12.90;1.60;;;23.70;98.00;;;;;;4991779;28;20038;-86
2021/07/05 09:11:49;;;;;;;1.27;1.17;;;24.00;97.60;;;;;;4992934;28;20039;-87
2021/07/05 09:14:23;;;;;;;0.70;0.70;;;24.20;97.10;;;;;;4993222;28;20080;-85
2021/07/05 09:16:51;;;;;;;1.65;1.08;;;24.50;97.20;;;;;;4992856;28;20045;-86
2021/07/05 09:19:22;;;;;;;1.63;1.52;;;24.80;96.90;;;;;;4992796;28;20046;-86
2021/07/05 09:21:56;;;;;;;0.75;0.75;;;24.70;96.10;;;;;;4991339;28;20044;-86
2021/07/05 09:24:35;;;;;;;1.13;1.00;;;24.60;95.70;;;;;;4992755;28;20038;-87
2021/07/05 09:27:19;;;;;;;0.70;0.70;;;24.50;95.70;;;;;;4975382;28;20038;-86
2021/07/05 09:29:46;;;;;;;0.65;0.65;;;24.50;96.00;;;;;;4992520;28;20045;-85
2021/07/05 09:32:22;;;;;;;1.73;0.93;;;24.80;95.30;;;;;;4975256;28;20059;-85
2021/07/05 09:34:48;;;;;;;2.20;1.27;;;25.10;95.00;;;;;;4992605;28;20419;-83
2021/07/05 09:37:22;;;;;;;0.80;0.80;;;25.50;94.70;;;;;;4996263;28;20042;-85
2021/07/05 09:40:04;;;;;;;1.05;1.00;;;25.50;93.90;;;;;;4993826;28;20512;-85
2021/07/05 09:42:40;;;;;;;1.05;0.98;;;25.50;93.90;;;;;;5012053;28;20042;-87
2021/07/05 09:45:15;;;;;;;1.13;1.02;;;25.50;93.10;;;;;;4994225;28;20045;-86
2021/07/05 09:47:42;;;;;;;0.88;0.88;;;25.40;93.30;;;;;;4994881;28;20084;-84
2021/07/05 09:50:13;;;;;;;0.82;0.82;;;25.30;93.00;;;;;;5111686;23;20532;-86
2021/07/05 09:52:39;;;;;;;0.65;0.65;;;25.70;92.90;;;;;;5031927;28;20029;-87
2021/07/05 09:55:17;;;;;;;0.50;0.50;;;25.80;92.60;;;;;;5032078;28;20014;-86
2021/07/05 09:57:48;;;;;;;0.75;0.73;;;25.90;92.60;;;;;;5032108;28;20457;-83
2021/07/05 10:00:27;;;;;;;0.73;0.73;;;26.00;92.10;;;;;;5030431;28;20087;-87
2021/07/05 10:02:54;;;;;;;5.13;0.70;;;26.30;91.80;;;;;;5031837;28;20028;-83
2021/07/05 10:05:21;;;;;;;0.50;0.50;;;26.50;92.50;;;;;;5030336;28;20037;-85
2021/07/05 10:08:08;;;;;;;0.50;0.50;;;27.00;91.50;;;;;;5030564;28;20025;-86
2021/07/05 10:10:37;;;;;;;1.30;0.90;;;26.90;91.10;;;;;;5031707;28;20033;-85
2021/07/05 10:13:06;;;;;;;0.40;0.40;;;27.00;91.00;;;;;;5030492;28;20064;-86
2021/07/05 10:15:33;;;;;;;0.50;0.50;;;27.00;90.70;;;;;;5032097;28;20037;-87
2021/07/05 10:17:59;;;;;;;0.75;0.75;;;27.00;90.60;;;;;;5031647;28;20084;-85
2021/07/05 10:20:42;;;;;;;1.30;1.10;;;26.70;90.50;;;;;;5031559;28;20076;-86
2021/07/05 10:23:13;;;;;;;1.48;1.38;;;26.80;90.60;;;;;;5029847;28;20496;-87
2021/07/05 10:25:42;;;;;;;0.47;0.47;;;27.20;90.60;;;;;;5030608;28;20029;-85
2021/07/05 10:28:08;;;;;;;0.55;0.55;;;27.60;90.30;;;;;;5030049;28;20473;-84
2021/07/05 10:30:35;;;;;;;1.38;1.10;;;27.40;87.70;;;;;;5031211;28;20037;-85
2021/07/05 10:33:03;;;;;;;1.65;1.48;;;27.50;87.10;;;;;;5046934;28;20042;-85
2021/07/05 10:35:39;;;;;;;1.30;0.95;;;27.60;87.00;;;;;;5029740;28;20481;-86
2021/07/05 10:38:26;;;;;;;0.75;0.75;;;27.70;86.60;;;;;;5031004;28;20084;-86
2021/07/05 10:40:54;;;;;;;0.55;0.55;;;27.70;86.40;;;;;;5031189;28;20083;-86
2021/07/05 10:43:43;;;;;;;1.25;1.02;;;28.10;86.40;;;;;;5031704;28;20378;-85
2021/07/05 10:46:09;;;;;;;0.32;0.32;;;28.20;84.00;;;;;;5031641;28;20549;-85
2021/07/05 10:48:42;;;;;;;1.58;0.80;;;28.20;81.20;;;;;;5031450;28;20042;-86
2021/07/05 10:51:14;;;;;;;0.65;0.65;;;28.10;81.20;;;;;;5049555;28;20044;-86
2021/07/05 10:53:45;;;;;;;0.50;0.43;;;28.60;81.70;;;;;;5049674;28;20535;-86
2021/07/05 10:56:29;;;;;;;0.55;0.55;;;28.90;79.90;;;;;;5049794;28;20099;-85
2021/07/05 10:59:16;;;;;;;0.40;0.40;;;29.10;79.40;;;;;;5049482;28;20044;-86
2021/07/05 11:01:44;;;;;;;0.82;0.75;;;29.10;77.50;;;;;;5040218;28;20029;-87
2021/07/05 11:04:31;;;;;;;0.75;0.75;;;28.70;77.50;;;;;;5053584;28;20057;-87
2021/07/05 11:06:59;;;;;;;3.30;1.75;;;28.60;78.10;;;;;;5053694;28;20052;-86
2021/07/05 11:09:25;;;;;;;0.60;0.60;;;28.30;77.00;;;;;;5053572;28;20044;-86
2021/07/05 11:11:52;;;;;;;0.47;0.45;;;28.20;77.00;;;;;;5055284;28;20093;-89
2021/07/05 11:18:31;;;;;;;0.60;0.60;;;28.00;76.40;;;;;;5054520;28;20052;-85
2021/07/05 11:28:34;;;;;;;0.80;0.57;;;28.60;76.00;;;;;;4991471;28;20486;-85
2021/07/05 11:35:10;;;;;;;;;;;;;;;;;;;;;
2021/07/05 11:38:29;;;;;;;0.68;0.63;;;28.90;73.30;;;;;;4992366;28;20050;-86
2021/07/05 11:41:50;;;;;;;2.00;1.45;;;29.60;72.10;;;;;;4992373;28;20053;-85
2021/07/05 11:45:05;;;;;;;0.60;0.60;;;30.30;71.60;;;;;;4992072;28;20537;-86
2021/07/05 11:47:41;;;;;;;0.20;0.20;;;30.90;71.10;;;;;;4992176;28;20085;-84
2021/07/05 11:50:22;;;;;;;0.40;0.40;;;31.10;69.20;;;;;;4992521;28;20105;-84
2021/07/05 11:52:50;;;;;;;0.30;0.30;;;31.10;69.30;;;;;;4992488;28;20054;-85
2021/07/05 11:55:18;;;;;;;0.93;0.68;;;30.80;68.60;;;;;;5029066;28;20103;-84
2021/07/05 11:58:09;;;;;;;1.05;0.95;;;30.00;68.60;;;;;;5032134;28;20099;-83
2021/07/05 12:04:36;;;;;;;0.30;0.30;;;29.40;68.00;;;;;;5034196;28;20099;-85
2021/07/05 12:07:51;;;;;;;0.85;0.60;;;30.00;68.50;;;;;;5032767;28;20050;-85
2021/07/05 12:10:55;;;;;;;2.78;1.13;;;30.30;67.20;;;;;;5034501;28;20596;-86
2021/07/05 12:17:03;;;;;;;0.40;0.40;;;31.10;66.50;;;;;;5033055;28;20083;-86
2021/07/05 12:19:32;;;;;;;0.50;0.50;;;31.20;65.90;;;;;;5049032;28;20385;-86
2021/07/05 12:22:06;;;;;;;0.63;0.60;;;31.20;65.40;;;;;;5049091;28;20045;-85
2021/07/05 12:24:39;;;;;;;0.35;0.28;;;31.20;65.00;;;;;;5032595;28;20034;-83
2021/07/05 12:27:11;;;;;;;0.30;0.30;;;31.00;65.60;;;;;;5033796;28;20417;-87
2021/07/05 12:29:52;;;;;;;0.20;0.20;;;30.60;65.70;;;;;;5049058;28;20494;-86
2021/07/05 12:32:21;;;;;;;1.83;0.98;;;30.30;65.40;;;;;;5049199;28;20034;-85
2021/07/05 12:34:50;;;;;;;0.38;0.30;;;30.10;65.40;;;;;;5031727;28;20037;-83
2021/07/05 12:37:31;;;;;;;0.30;0.30;;;30.20;65.20;;;;;;5053596;28;20495;-84
2021/07/05 12:39:58;;;;;;;0.28;0.28;;;30.30;65.30;;;;;;5053632;28;20040;-90
2021/07/05 12:42:28;;;;;;;0.20;0.20;;;30.40;64.70;;;;;;5053535;28;20104;-86
2021/07/05 12:44:55;;;;;;;0.30;0.30;;;30.50;64.70;;;;;;5052158;28;20029;-87
2021/07/05 12:47:24;;;;;;;0.30;0.30;;;30.30;63.40;;;;;;5052374;28;20029;-85
2021/07/05 12:49:51;;;;;;;0.30;0.30;;;30.40;63.80;;;;;;5159203;22;20412;-86
2021/07/05 12:52:23;;;;;;;0.20;0.20;;;30.50;63.00;;;;;;5036071;28;20029;-84
2021/07/05 12:55:15;;;;;;;0.35;0.35;;;30.30;62.20;;;;;;5100846;22;20090;-84
2021/07/05 12:57:54;;;;;;;0.22;0.22;;;30.30;62.40;;;;;;5093113;28;20113;-84
2021/07/05 13:00:26;;;;;;;0.30;0.30;;;30.20;62.40;;;;;;5093577;28;20057;-88
2021/07/05 13:03:05;;;;;;;0.20;0.20;;;30.20;63.90;;;;;;5093158;28;20409;-84
2021/07/05 13:05:31;;;;;;;2.45;1.15;;;30.10;63.50;;;;;;5093462;28;20364;-84
2021/07/05 13:07:59;;;;;;;0.57;0.57;;;30.50;64.60;;;;;;5093090;28;20392;-85
2021/07/05 13:14:01;;;;;;;0.75;0.40;;;31.80;61.50;;;;;;5093318;28;20123;-84
2021/07/05 13:16:27;;;;;;;0.73;0.65;;;32.30;60.70;;;;;;5092880;28;20065;-87
2021/07/05 13:19:28;;;;;;;0.90;0.40;;;32.40;59.90;;;;;;5074026;28;20040;-85
2021/07/05 13:25:02;;;;;;;0.30;0.30;;;32.60;59.80;;;;;;5092551;28;20047;-82
2021/07/05 13:30:57;;;;;;;0.63;0.63;;;32.10;59.60;;;;;;5092955;28;20047;-86
2021/07/05 13:33:47;;;;;;;0.60;0.60;;;32.10;59.60;;;;;;5081096;28;20040;-86
2021/07/05 13:36:52;;;;;;;0.50;0.50;;;32.00;59.80;;;;;;5092369;28;20362;-84
2021/07/05 13:39:28;;;;;;;0.93;0.57;;;31.80;60.20;;;;;;5092292;28;20047;-84
2021/07/05 13:42:12;;;;;;;0.45;0.45;;;31.70;60.30;;;;;;5092426;28;20028;-84
2021/07/05 13:44:40;;;;;;;0.30;0.30;;;31.70;60.20;;;;;;5074107;28;20043;-83
2021/07/05 13:47:35;;;;;;;0.73;0.60;;;32.00;60.00;;;;;;5092193;28;20032;-83
2021/07/05 13:50:22;;;;;;;0.30;0.30;;;32.10;59.60;;;;;;5074055;28;20024;-85
2021/07/05 13:52:49;;;;;;;0.93;0.77;;;32.30;58.40;;;;;;5073916;28;20051;-85
2021/07/05 13:55:37;;;;;;;0.22;0.22;;;32.80;58.30;;;;;;5091702;28;20438;-87
2021/07/05 13:58:10;;;;;;;1.38;0.95;;;33.10;57.70;;;;;;5091765;28;20087;-87
2021/07/05 14:01:01;;;;;;;0.20;0.20;;;33.20;57.30;;;;;;5092545;28;20403;-86
2021/07/05 14:03:28;;;;;;;0.30;0.30;;;33.00;57.00;;;;;;5078917;28;20090;-86
2021/07/05 14:05:56;;;;;;;0.85;0.73;;;32.40;57.50;;;;;;5091986;28;20479;-84
2021/07/05 14:08:23;;;;;;;0.10;0.10;;;32.20;58.60;;;;;;5091746;28;20170;-84
2021/07/05 14:10:52;;;;;;;0.40;0.40;;;31.90;58.60;;;;;;5074016;28;20036;-85
2021/07/05 14:16:53;;;;;;;0.40;0.40;;;31.50;59.30;;;;;;4989499;28;20104;-85
2021/07/05 14:19:48;;;;;;;0.20;0.20;;;31.40;60.00;;;;;;5010647;28;20036;-85
2021/07/05 14:22:20;;;;;;;0.68;0.63;;;31.50;60.00;;;;;;4989458;28;20042;-82
2021/07/05 14:25:03;;;;;;;0.30;0.30;;;31.40;59.60;;;;;;4989521;28;20146;-83
2021/07/05 14:27:28;;;;;;;0.22;0.22;;;31.40;60.50;;;;;;5087294;28;20075;-83
2021/07/05 14:29:54;;;;;;;0.40;0.30;;;31.40;60.40;;;;;;5091437;28;20056;-86
2021/07/05 14:32:20;;;;;;;0.45;0.45;;;31.40;60.80;;;;;;5073523;28;20032;-86
2021/07/05 14:34:46;;;;;;;0.50;0.50;;;31.40;60.30;;;;;;5091003;28;20063;-84
2021/07/05 14:39:57;;;;;;;0.30;0.30;;;31.90;60.20;;;;;;5055835;28;20439;-84
2021/07/05 14:42:51;;;;;;;0.75;0.60;;;32.10;59.90;;;;;;5071618;28;20480;-83
2021/07/05 14:45:29;;;;;;;0.38;0.30;;;32.70;59.70;;;;;;5071053;28;20060;-84
2021/07/05 14:48:38;;;;;;;0.57;0.57;;;33.40;58.50;;;;;;5052577;28;20275;-86
2021/07/05 14:51:33;;;;;;;0.50;0.50;;;33.20;57.60;;;;;;5071044;28;20062;-83
2021/07/05 14:53:59;;;;;;;0.93;0.63;;;33.80;58.30;;;;;;5070857;28;20048;-86
2021/07/05 14:56:24;;;;;;;0.63;0.55;;;34.10;57.00;;;;;;5071111;28;20050;-87
2021/07/05 14:58:50;;;;;;;1.45;1.30;;;34.70;57.00;;;;;;5052725;28;20044;-85
2021/07/05 15:01:16;;;;;;;0.77;0.50;;;34.80;56.40;;;;;;5071088;28;20032;-82
2021/07/05 15:03:41;;;;;;;0.50;0.50;;;34.70;55.60;;;;;;5070979;28;20503;-85
2021/07/05 15:06:07;;;;;;;0.43;0.43;;;34.00;56.90;;;;;;5071107;28;20159;-82
2021/07/05 15:08:33;;;;;;;0.30;0.30;;;33.30;56.50;;;;;;5053273;28;20036;-86
2021/07/05 15:10:59;;;;;;;0.93;0.80;;;32.90;57.00;;;;;;5053189;28;20040;-81
2021/07/05 15:13:29;;;;;;;0.47;0.40;;;32.70;57.10;;;;;;5070623;28;20483;-85